Time;durP1;ratioP1;P1;durP2;ratioP2;P2;SDS_P1;SDS_P2;PMS_P1;PMS_P2;Temp;Humidity;BMP_temperature;BMP_pressure;BME280_temperature;BME280_humidity;BME280_pressure;Samples;Min_cycle;Max_cycle;Signal;HPM_P1;HPM_P2
2022/06/06 00:02:17;;;;;;;55.83;34.73;;;16.60;99.90;;;;;;5040547;28;20286;-76
2022/06/06 00:04:43;;;;;;;55.73;34.47;;;16.50;99.90;;;;;;5058425;28;20167;-75
2022/06/06 00:07:08;;;;;;;57.00;35.63;;;16.40;99.90;;;;;;5058195;28;20225;-76
2022/06/06 00:09:34;;;;;;;62.03;35.07;;;16.40;99.90;;;;;;5041103;28;20186;-75
2022/06/06 00:12:02;;;;;;;53.27;33.43;;;16.40;99.90;;;;;;5059271;28;20543;-76
2022/06/06 00:14:28;;;;;;;56.10;36.13;;;16.40;99.90;;;;;;5058915;28;20670;-76
2022/06/06 00:16:54;;;;;;;59.47;34.07;;;16.40;99.90;;;;;;5058614;28;20243;-76
2022/06/06 00:19:20;;;;;;;55.23;34.83;;;16.30;99.90;;;;;;5058624;28;20176;-76
2022/06/06 00:21:46;;;;;;;52.43;33.93;;;16.30;99.90;;;;;;5058861;28;20257;-76
2022/06/06 00:24:12;;;;;;;47.40;31.00;;;16.30;99.90;;;;;;5040125;28;20195;-76
2022/06/06 00:26:38;;;;;;;49.23;31.63;;;16.20;99.90;;;;;;5058393;28;20250;-76
2022/06/06 00:29:05;;;;;;;46.37;29.63;;;16.30;99.90;;;;;;5039858;28;20671;-76
2022/06/06 00:37:03;;;;;;;44.93;30.37;;;16.20;99.90;;;;;;5058624;28;20227;-76
2022/06/06 00:39:28;;;;;;;47.20;29.23;;;16.20;99.90;;;;;;5038445;28;20180;-76
2022/06/06 00:41:56;;;;;;;44.23;29.13;;;16.20;99.90;;;;;;5039582;28;20199;-76
2022/06/06 00:44:29;;;;;;;44.37;27.97;;;16.20;99.90;;;;;;5057791;28;20198;-75
2022/06/06 00:46:56;;;;;;;41.47;26.70;;;16.20;99.90;;;;;;5057786;28;20187;-76
2022/06/06 00:49:31;;;;;;;41.30;26.43;;;16.20;99.90;;;;;;5039521;28;20180;-76
2022/06/06 00:51:57;;;;;;;39.40;25.37;;;16.10;99.90;;;;;;5039133;28;20183;-76
2022/06/06 00:54:24;;;;;;;37.37;25.10;;;16.10;99.90;;;;;;5075740;22;20231;-94
2022/06/06 00:56:56;;;;;;;37.80;25.03;;;16.20;99.90;;;;;;5072138;28;20199;-94
2022/06/06 00:59:26;;;;;;;37.80;24.53;;;16.10;99.90;;;;;;5071256;28;20198;-94
2022/06/06 01:01:53;;;;;;;35.70;22.77;;;16.10;99.90;;;;;;5072976;28;20191;-94
2022/06/06 01:04:23;;;;;;;36.77;23.37;;;15.70;99.90;;;;;;5072732;28;20657;-94
2022/06/06 01:06:49;;;;;;;33.93;22.77;;;16.70;99.90;;;;;;5069085;28;20243;-94
2022/06/06 01:09:17;;;;;;;34.40;22.97;;;16.10;99.90;;;;;;5068463;28;20179;-94
2022/06/06 01:11:47;;;;;;;35.53;22.63;;;17.20;99.90;;;;;;5068801;28;20196;-93
2022/06/06 01:14:17;;;;;;;34.23;22.60;;;16.10;99.90;;;;;;5074008;28;20152;-94
2022/06/06 01:16:45;;;;;;;35.70;22.57;;;15.70;99.90;;;;;;5073397;28;20208;-94
2022/06/06 01:19:36;;;;;;;33.13;20.60;;;16.00;99.90;;;;;;5070231;28;20645;-95
2022/06/06 01:22:24;;;;;;;33.37;20.73;;;15.90;99.90;;;;;;5073749;28;20200;-94
2022/06/06 01:25:24;;;;;;;32.77;20.57;;;15.90;99.90;;;;;;5074799;28;20170;-94
2022/06/06 01:28:15;;;;;;;36.40;22.37;;;15.80;99.90;;;;;;5070965;28;20174;-94
2022/06/06 01:30:47;;;;;;;34.00;21.67;;;15.80;99.90;;;;;;5069830;28;20195;-94
2022/06/06 01:33:14;;;;;;;35.30;21.40;;;16.30;99.90;;;;;;5070281;28;20168;-93
2022/06/06 01:35:45;;;;;;;37.27;21.67;;;15.70;99.90;;;;;;5065756;28;20199;-94
2022/06/06 01:38:13;;;;;;;34.13;21.80;;;15.70;99.90;;;;;;5070489;28;20168;-94
2022/06/06 01:40:57;;;;;;;35.70;22.37;;;15.70;99.90;;;;;;5071175;28;20261;-93
2022/06/06 01:43:57;;;;;;;33.70;20.67;;;15.70;99.90;;;;;;5067954;28;20164;-93
2022/06/06 01:46:26;;;;;;;37.93;22.03;;;15.70;99.90;;;;;;5068937;28;20176;-94
2022/06/06 01:48:54;;;;;;;35.03;23.17;;;15.60;99.90;;;;;;5066907;28;20176;-94
2022/06/06 01:51:27;;;;;;;38.77;23.70;;;15.60;99.90;;;;;;5069860;28;20201;-94
2022/06/06 01:53:53;;;;;;;40.27;24.30;;;15.70;99.90;;;;;;5071529;28;20182;-94
2022/06/06 01:56:27;;;;;;;41.40;24.53;;;15.60;99.90;;;;;;5074465;28;20282;-94
2022/06/06 01:58:53;;;;;;;36.83;22.90;;;15.90;99.90;;;;;;5070149;28;20192;-94
2022/06/06 02:01:19;;;;;;;38.17;24.00;;;17.00;99.90;;;;;;5069881;28;20219;-93
2022/06/06 02:03:44;;;;;;;38.20;23.30;;;15.50;99.90;;;;;;5071893;28;20182;-94
2022/06/06 02:06:10;;;;;;;35.10;23.27;;;16.10;99.90;;;;;;5068613;28;20191;-94
2022/06/06 02:08:36;;;;;;;41.40;23.00;;;15.50;99.90;;;;;;5070656;28;20654;-93
2022/06/06 02:11:03;;;;;;;41.27;24.60;;;15.50;99.90;;;;;;5072442;28;20187;-94
2022/06/06 02:13:29;;;;;;;41.73;24.57;;;15.90;99.90;;;;;;5073097;28;20187;-94
2022/06/06 02:15:55;;;;;;;42.77;24.60;;;16.60;99.90;;;;;;5068474;28;20204;-93
2022/06/06 02:18:22;;;;;;;39.33;24.27;;;15.50;99.90;;;;;;5070097;28;20191;-94
2022/06/06 02:20:48;;;;;;;39.13;23.20;;;15.50;99.90;;;;;;5080598;28;20195;-93
2022/06/06 02:23:14;;;;;;;41.37;24.83;;;15.50;99.90;;;;;;5079112;28;20168;-93
2022/06/06 02:25:41;;;;;;;41.43;25.30;;;15.70;99.90;;;;;;5078969;28;20168;-94
2022/06/06 02:28:07;;;;;;;41.83;24.67;;;15.60;99.90;;;;;;5078510;28;20184;-93
2022/06/06 02:30:35;;;;;;;40.57;24.57;;;15.60;99.90;;;;;;5079596;28;20232;-93
2022/06/06 02:33:02;;;;;;;41.70;26.07;;;15.50;99.90;;;;;;5078921;28;20156;-93
2022/06/06 02:35:30;;;;;;;45.30;26.80;;;15.50;99.90;;;;;;5078082;28;20231;-94
2022/06/06 02:37:56;;;;;;;45.37;25.97;;;15.50;99.90;;;;;;5078488;28;20239;-94
2022/06/06 02:40:24;;;;;;;41.97;23.87;;;15.50;99.90;;;;;;5074856;28;20172;-93
2022/06/06 02:42:50;;;;;;;43.27;26.10;;;15.00;99.90;;;;;;5078414;28;20201;-94
2022/06/06 02:45:17;;;;;;;47.37;25.93;;;15.60;99.90;;;;;;5074862;28;20175;-94
2022/06/06 02:47:48;;;;;;;44.90;26.00;;;15.80;99.90;;;;;;5076158;28;20203;-93
2022/06/06 02:50:16;;;;;;;45.97;26.77;;;15.60;99.90;;;;;;5079973;28;20162;-92
2022/06/06 02:52:43;;;;;;;48.23;27.57;;;15.80;99.90;;;;;;5081425;28;20175;-92
2022/06/06 02:55:10;;;;;;;43.57;25.17;;;15.70;99.90;;;;;;5079868;28;20241;-94
2022/06/06 02:57:40;;;;;;;44.93;24.70;;;15.80;99.90;;;;;;5077861;28;20170;-93
2022/06/06 03:00:10;;;;;;;43.23;24.27;;;15.60;99.90;;;;;;5078672;28;20183;-93
2022/06/06 03:02:35;;;;;;;44.43;23.50;;;15.60;99.90;;;;;;5072728;28;20567;-94
2022/06/06 03:05:03;;;;;;;41.00;24.30;;;15.60;99.90;;;;;;5076415;28;20172;-94
2022/06/06 03:07:53;;;;;;;36.80;22.77;;;15.80;99.90;;;;;;5073769;28;20175;-93
2022/06/06 03:10:57;;;;;;;37.90;22.13;;;15.60;99.90;;;;;;5075655;28;20188;-94
2022/06/06 03:13:22;;;;;;;34.87;19.93;;;15.70;99.90;;;;;;5071196;28;20200;-94
2022/06/06 03:22:11;;;;;;;22.50;15.07;;;15.90;99.90;;;;;;5069990;28;20209;-94
2022/06/06 03:25:16;;;;;;;24.90;14.07;;;15.80;99.90;;;;;;5068990;28;20148;-94
2022/06/06 03:27:42;;;;;;;21.40;12.93;;;15.60;99.90;;;;;;5067492;28;20159;-94
2022/06/06 03:30:32;;;;;;;18.37;12.53;;;15.70;99.90;;;;;;5071103;28;20191;-94
2022/06/06 03:33:11;;;;;;;24.53;13.50;;;15.60;99.90;;;;;;5070172;28;20239;-94
2022/06/06 03:35:43;;;;;;;20.03;11.60;;;15.60;99.90;;;;;;5073088;28;20206;-93
2022/06/06 03:38:24;;;;;;;14.77;10.57;;;15.70;99.90;;;;;;5070099;28;20172;-93
2022/06/06 03:40:54;;;;;;;15.17;9.63;;;16.00;99.90;;;;;;5074528;28;20187;-94
2022/06/06 03:43:20;;;;;;;14.90;10.53;;;15.60;99.90;;;;;;5074668;28;20176;-93
2022/06/06 03:45:51;;;;;;;14.33;9.33;;;16.10;99.90;;;;;;5079662;22;20321;-83
2022/06/06 03:48:52;;;;;;;17.23;9.37;;;15.70;99.90;;;;;;5044655;28;20182;-85
2022/06/06 03:51:29;;;;;;;14.77;9.70;;;15.70;99.90;;;;;;5063226;28;20192;-83
2022/06/06 03:54:01;;;;;;;14.90;10.57;;;15.60;99.90;;;;;;5061137;28;20275;-82
2022/06/06 03:56:55;;;;;;;13.53;9.13;;;15.70;99.90;;;;;;5043238;28;20239;-83
2022/06/06 03:59:22;;;;;;;15.53;9.80;;;15.70;99.90;;;;;;5061752;28;20606;-84
2022/06/06 04:01:50;;;;;;;14.00;9.00;;;15.70;99.90;;;;;;5043359;28;20168;-84
2022/06/06 04:04:16;;;;;;;13.97;9.87;;;15.60;99.90;;;;;;5043130;28;20729;-83
2022/06/06 04:06:43;;;;;;;14.73;8.87;;;15.70;99.90;;;;;;5060680;28;20204;-83
2022/06/06 04:09:08;;;;;;;13.17;9.33;;;15.70;99.90;;;;;;5060401;28;20325;-83
2022/06/06 04:12:06;;;;;;;13.67;9.00;;;15.50;99.90;;;;;;5060582;28;20673;-85
2022/06/06 04:14:41;;;;;;;14.90;9.57;;;15.70;99.90;;;;;;5060000;28;20210;-83
2022/06/06 04:17:26;;;;;;;13.57;9.17;;;15.60;99.90;;;;;;5042910;28;20172;-84
2022/06/06 04:20:27;;;;;;;11.80;8.27;;;15.70;99.90;;;;;;5043944;28;20225;-84
2022/06/06 04:23:03;;;;;;;12.73;8.87;;;15.70;99.90;;;;;;5043769;28;20186;-84
2022/06/06 04:26:01;;;;;;;14.23;9.30;;;15.70;99.90;;;;;;5043497;28;20202;-84
2022/06/06 04:29:06;;;;;;;13.30;9.07;;;15.70;99.90;;;;;;5042007;28;20245;-84
2022/06/06 04:31:54;;;;;;;13.30;9.17;;;15.70;99.90;;;;;;4979206;28;20276;-84
2022/06/06 04:34:44;;;;;;;15.43;10.13;;;15.70;99.90;;;;;;4981740;28;20772;-85
2022/06/06 04:37:30;;;;;;;12.30;8.73;;;15.70;99.90;;;;;;5026003;28;20298;-83
2022/06/06 04:40:14;;;;;;;12.07;9.57;;;15.70;99.90;;;;;;5041541;28;20266;-84
2022/06/06 04:43:13;;;;;;;14.17;9.23;;;15.70;99.90;;;;;;5041683;28;20657;-83
2022/06/06 04:45:55;;;;;;;12.10;9.23;;;15.70;99.90;;;;;;5041012;28;20183;-83
2022/06/06 04:48:22;;;;;;;13.67;9.07;;;15.70;99.90;;;;;;5041586;28;20164;-84
2022/06/06 04:50:48;;;;;;;12.53;8.97;;;15.60;99.90;;;;;;5059808;28;20653;-83
2022/06/06 04:53:19;;;;;;;15.60;9.50;;;15.70;99.90;;;;;;5040369;28;20196;-83
2022/06/06 04:55:49;;;;;;;13.37;9.80;;;15.60;99.90;;;;;;5041856;28;20207;-83
2022/06/06 04:58:17;;;;;;;14.77;9.67;;;15.60;99.90;;;;;;5041901;28;20175;-84
2022/06/06 05:00:43;;;;;;;16.07;9.10;;;15.60;99.90;;;;;;5040917;28;20270;-84
2022/06/06 05:03:09;;;;;;;18.97;9.07;;;15.60;99.90;;;;;;5040669;28;20228;-84
2022/06/06 05:06:09;;;;;;;14.40;8.77;;;15.60;99.90;;;;;;5040494;28;20180;-84
2022/06/06 05:09:01;;;;;;;12.17;8.23;;;15.70;99.90;;;;;;5002798;28;20234;-84
2022/06/06 05:11:35;;;;;;;12.53;9.43;;;15.70;99.90;;;;;;5029796;28;20232;-83
2022/06/06 05:14:14;;;;;;;15.80;9.13;;;15.70;99.90;;;;;;5038058;28;20200;-83
2022/06/06 05:17:18;;;;;;;12.50;8.77;;;15.70;99.90;;;;;;5020825;28;20203;-82
2022/06/06 05:19:59;;;;;;;10.80;8.40;;;15.70;99.90;;;;;;5041367;28;20168;-83
2022/06/06 05:23:03;;;;;;;15.47;9.10;;;15.70;99.90;;;;;;5047910;28;20168;-83
2022/06/06 05:25:39;;;;;;;13.77;8.80;;;15.60;99.90;;;;;;5056428;28;20187;-83
2022/06/06 05:28:41;;;;;;;10.43;8.40;;;15.60;99.90;;;;;;5041913;28;20171;-84
2022/06/06 05:31:38;;;;;;;14.63;7.97;;;15.60;99.90;;;;;;5043186;28;20179;-82
2022/06/06 05:34:19;;;;;;;12.80;8.70;;;15.60;99.90;;;;;;5049671;28;20188;-84
2022/06/06 05:37:13;;;;;;;12.47;8.20;;;15.70;99.90;;;;;;5057131;28;20188;-83
2022/06/06 05:39:39;;;;;;;11.60;7.67;;;15.60;99.90;;;;;;5045423;28;20163;-83
2022/06/06 05:42:30;;;;;;;10.83;7.87;;;15.60;99.90;;;;;;5058067;28;20233;-83
2022/06/06 05:45:20;;;;;;;11.70;7.70;;;15.60;99.90;;;;;;5040476;28;20216;-83
2022/06/06 05:47:59;;;;;;;11.57;8.03;;;15.60;99.90;;;;;;5042714;28;20186;-84
2022/06/06 05:50:45;;;;;;;13.00;8.00;;;15.70;99.90;;;;;;5035430;28;20207;-83
2022/06/06 05:53:11;;;;;;;11.87;7.60;;;15.60;99.90;;;;;;5055755;28;20237;-83
2022/06/06 05:55:39;;;;;;;12.27;6.93;;;15.70;99.90;;;;;;5060075;28;20202;-82
2022/06/06 05:58:10;;;;;;;11.03;7.20;;;15.70;99.90;;;;;;5060768;28;20544;-84
2022/06/06 06:01:13;;;;;;;9.93;6.73;;;15.70;99.90;;;;;;5042842;28;20184;-84
2022/06/06 06:04:08;;;;;;;9.40;5.83;;;15.80;99.90;;;;;;5060390;28;20187;-83
2022/06/06 06:06:37;;;;;;;7.40;5.90;;;15.80;99.90;;;;;;5059658;28;20258;-83
2022/06/06 06:09:16;;;;;;;10.77;6.43;;;15.80;99.90;;;;;;5040916;28;20186;-84
2022/06/06 06:12:21;;;;;;;10.00;5.63;;;15.70;99.90;;;;;;5042695;28;20221;-83
2022/06/06 06:15:03;;;;;;;11.93;5.53;;;15.70;99.90;;;;;;5043249;28;20194;-84
2022/06/06 06:17:31;;;;;;;8.10;5.17;;;15.70;99.90;;;;;;5041410;28;20199;-83
2022/06/06 06:20:12;;;;;;;7.27;4.87;;;15.80;99.90;;;;;;5059456;28;20187;-83
2022/06/06 06:22:56;;;;;;;7.73;5.43;;;15.80;99.90;;;;;;5044954;28;20251;-83
2022/06/06 06:25:24;;;;;;;7.80;5.33;;;15.80;99.90;;;;;;5043284;28;20183;-83
2022/06/06 06:27:56;;;;;;;7.37;4.90;;;15.80;99.90;;;;;;5041871;28;20663;-79
2022/06/06 06:30:21;;;;;;;7.67;5.07;;;15.80;99.90;;;;;;5039340;28;20172;-80
2022/06/06 06:33:24;;;;;;;6.40;4.97;;;15.90;99.90;;;;;;5055455;28;20534;-81
2022/06/06 06:35:56;;;;;;;6.07;4.33;;;15.90;99.90;;;;;;5018263;28;20282;-81
2022/06/06 06:38:36;;;;;;;7.47;4.93;;;15.90;99.90;;;;;;5066860;28;20259;-82
2022/06/06 06:41:15;;;;;;;6.23;4.20;;;16.00;99.90;;;;;;5044414;28;20180;-80
2022/06/06 06:44:07;;;;;;;8.67;4.47;;;16.00;99.90;;;;;;5060702;28;20195;-76
2022/06/06 06:46:38;;;;;;;6.20;3.93;;;16.00;43.40;;;;;;5056853;28;20171;-77
2022/06/06 06:49:26;;;;;;;6.23;3.47;;;16.00;1.00;;;;;;5038619;28;20229;-77
2022/06/06 06:52:10;;;;;;;6.30;4.10;;;16.00;1.00;;;;;;5056492;28;20170;-76
2022/06/06 06:54:51;;;;;;;5.77;3.80;;;15.90;1.00;;;;;;5059939;28;20188;-80
2022/06/06 06:57:39;;;;;;;7.67;4.30;;;15.90;1.00;;;;;;5081948;22;20234;-73
2022/06/06 07:00:18;;;;;;;5.57;3.50;;;16.00;1.00;;;;;;5054689;28;20175;-74
2022/06/06 07:09:10;;;;;;;4.73;3.70;;;16.20;1.00;;;;;;5054594;28;20171;-75
2022/06/06 07:11:57;;;;;;;6.63;4.13;;;16.20;1.00;;;;;;5052395;28;20175;-75
2022/06/06 07:14:44;;;;;;;4.00;3.13;;;16.30;1.00;;;;;;5056096;28;20542;-74
2022/06/06 07:17:11;;;;;;;6.00;3.63;;;16.30;1.00;;;;;;5054555;28;20569;-73
2022/06/06 07:19:52;;;;;;;8.83;3.57;;;16.30;1.00;;;;;;5054198;28;20176;-73
2022/06/06 07:22:19;;;;;;;4.53;3.00;;;16.40;1.00;;;;;;5055811;28;20247;-74
2022/06/06 07:24:52;;;;;;;5.20;2.90;;;16.50;1.00;;;;;;5055377;28;20164;-73
2022/06/06 07:27:18;;;;;;;7.50;3.10;;;16.50;1.00;;;;;;5070659;28;20191;-74
2022/06/06 07:29:44;;;;;;;4.90;3.00;;;16.60;1.00;;;;;;5054035;28;20201;-74
2022/06/06 07:32:12;;;;;;;4.77;2.10;;;16.60;99.90;;;;;;5055163;28;20199;-74
2022/06/06 07:34:47;;;;;;;3.03;2.30;;;16.60;99.90;;;;;;5055066;28;20164;-73
2022/06/06 07:37:22;;;;;;;4.40;2.37;;;16.60;99.90;;;;;;5055059;28;20190;-73
2022/06/06 07:40:08;;;;;;;4.17;1.90;;;16.60;99.90;;;;;;5055238;28;20163;-74
2022/06/06 07:42:56;;;;;;;2.83;2.23;;;16.70;99.90;;;;;;5055143;28;20152;-73
2022/06/06 07:45:24;;;;;;;2.33;1.63;;;16.80;1.00;;;;;;5055280;28;20511;-74
2022/06/06 07:47:51;;;;;;;2.90;1.60;;;16.80;1.00;;;;;;5054515;28;20191;-74
2022/06/06 07:50:26;;;;;;;2.63;1.73;;;16.90;99.90;;;;;;5053682;28;20217;-73
2022/06/06 07:52:58;;;;;;;5.57;1.50;;;16.90;1.00;;;;;;5070306;28;20667;-74
2022/06/06 07:55:52;;;;;;;3.70;1.60;;;16.90;1.00;;;;;;5055069;28;20547;-73
2022/06/06 07:58:28;;;;;;;1.63;1.37;;;17.00;99.90;;;;;;5055079;28;20160;-74
2022/06/06 08:01:10;;;;;;;4.37;1.90;;;17.10;1.00;;;;;;5053564;28;20174;-74
2022/06/06 08:03:50;;;;;;;2.13;1.87;;;17.00;1.00;;;;;;5055326;28;20209;-73
2022/06/06 08:06:36;;;;;;;5.03;1.60;;;17.10;99.90;;;;;;5069916;28;20241;-74
2022/06/06 08:09:34;;;;;;;2.63;1.60;;;17.20;1.00;;;;;;5070015;28;20171;-74
2022/06/06 08:12:17;;;;;;;3.57;1.53;;;17.30;99.90;;;;;;5053304;28;20270;-73
2022/06/06 08:15:07;;;;;;;1.77;1.57;;;17.30;99.90;;;;;;5069874;28;20181;-73
2022/06/06 08:18:04;;;;;;;1.90;1.33;;;17.40;1.00;;;;;;5053207;28;20195;-73
2022/06/06 08:21:07;;;;;;;1.10;1.00;;;17.50;1.00;;;;;;5054822;28;20210;-74
2022/06/06 08:23:34;;;;;;;4.10;1.37;;;17.60;1.00;;;;;;5053386;28;20265;-74
2022/06/06 08:26:01;;;;;;;3.27;1.30;;;17.70;1.00;;;;;;5069616;28;20278;-74
2022/06/06 08:28:29;;;;;;;1.33;0.80;;;17.80;1.00;;;;;;5054681;28;20518;-75
2022/06/06 08:30:56;;;;;;;2.27;1.30;;;17.90;25.60;;;;;;5054633;28;20163;-76
2022/06/06 08:33:22;;;;;;;1.30;1.10;;;18.00;99.90;;;;;;5054778;28;20167;-74
2022/06/06 08:36:00;;;;;;;2.10;0.93;;;18.10;99.90;;;;;;5054410;28;20742;-73
2022/06/06 08:39:01;;;;;;;2.97;0.90;;;18.20;99.90;;;;;;5054438;28;20159;-76
2022/06/06 08:41:55;;;;;;;2.37;0.90;;;18.20;1.00;;;;;;5071287;28;20521;-78
2022/06/06 08:44:26;;;;;;;0.60;0.60;;;18.20;99.90;;;;;;5053358;28;20206;-75
2022/06/06 08:47:10;;;;;;;1.53;0.83;;;18.10;1.00;;;;;;5052742;28;20187;-74
2022/06/06 08:53:19;;;;;;;2.70;0.90;;;18.10;1.00;;;;;;5054394;28;20190;-75
2022/06/06 08:56:07;;;;;;;3.50;0.97;;;18.20;99.90;;;;;;5069748;28;20203;-74
2022/06/06 08:58:51;;;;;;;3.93;0.87;;;18.30;1.00;;;;;;5052538;28;20180;-74
2022/06/06 09:01:35;;;;;;;1.20;1.00;;;18.30;1.00;;;;;;5053734;28;20148;-77
2022/06/06 09:04:03;;;;;;;3.27;0.90;;;18.20;99.90;;;;;;5055880;28;20259;-79
2022/06/06 09:06:46;;;;;;;1.47;0.90;;;18.10;99.90;;;;;;5052357;28;20758;-76
2022/06/06 09:09:30;;;;;;;3.83;1.00;;;18.00;99.90;;;;;;5053828;28;20247;-76
2022/06/06 09:12:05;;;;;;;2.40;0.97;;;17.90;1.00;;;;;;5069386;28;20703;-77
2022/06/06 09:14:55;;;;;;;1.47;0.73;;;17.90;1.00;;;;;;5054313;28;20734;-78
2022/06/06 09:17:42;;;;;;;2.33;1.03;;;17.80;1.00;;;;;;5053693;28;20282;-76
2022/06/06 09:20:38;;;;;;;2.00;0.90;;;17.80;1.00;;;;;;5052851;28;20178;-76
2022/06/06 09:23:27;;;;;;;3.37;1.37;;;17.90;99.90;;;;;;5053859;28;20179;-78
2022/06/06 09:25:59;;;;;;;6.50;1.10;;;17.90;1.00;;;;;;5053715;28;20188;-76
2022/06/06 09:28:58;;;;;;;1.43;0.80;;;18.00;1.00;;;;;;5052786;28;20172;-77
2022/06/06 09:31:29;;;;;;;1.23;0.60;;;18.10;1.00;;;;;;5055544;28;20156;-79
2022/06/06 09:34:23;;;;;;;1.70;0.77;;;18.10;1.00;;;;;;5053985;28;20167;-77
2022/06/06 09:37:27;;;;;;;3.43;0.67;;;18.20;99.90;;;;;;5071044;28;20214;-75
2022/06/06 09:40:18;;;;;;;0.93;0.53;;;18.40;1.00;;;;;;5052998;28;20178;-76
2022/06/06 09:42:52;;;;;;;1.67;0.80;;;18.50;99.90;;;;;;5053407;28;20156;-76
2022/06/06 09:45:31;;;;;;;1.80;0.80;;;18.60;1.00;;;;;;5053540;28;20177;-80
2022/06/06 09:48:28;;;;;;;1.53;0.70;;;18.70;99.90;;;;;;5068917;28;20175;-77
2022/06/06 09:51:29;;;;;;;1.80;0.97;;;18.70;1.00;;;;;;5053838;28;20186;-79
2022/06/06 10:01:06;;;;;;;1.20;0.90;;;18.60;99.90;;;;;;5031935;28;20179;-78
2022/06/06 10:04:00;;;;;;;2.53;0.73;;;18.50;99.90;;;;;;5052103;28;20660;-76
2022/06/06 10:06:47;;;;;;;1.13;0.93;;;18.60;1.00;;;;;;5053904;28;20665;-76
2022/06/06 10:09:50;;;;;;;0.97;0.60;;;18.60;1.00;;;;;;5051367;28;20626;-76
2022/06/06 10:12:43;;;;;;;0.67;0.60;;;18.70;1.00;;;;;;5054625;28;20549;-77
2022/06/06 10:15:26;;;;;;;1.50;0.90;;;18.90;1.00;;;;;;5057300;28;20206;-76
2022/06/06 10:18:18;;;;;;;4.30;0.90;;;18.90;1.00;;;;;;5055754;28;20171;-79
2022/06/06 10:21:13;;;;;;;2.70;0.70;;;18.80;1.00;;;;;;5056911;28;20187;-76
2022/06/06 10:24:07;;;;;;;0.80;0.70;;;18.90;99.90;;;;;;5056881;28;20221;-77
2022/06/06 10:26:38;;;;;;;3.90;0.90;;;19.10;1.00;;;;;;5048739;28;20211;-76
2022/06/06 10:32:56;;;;;;;0.83;0.60;;;19.20;99.90;;;;;;5056719;28;20529;-77
2022/06/06 10:35:46;;;;;;;2.47;0.60;;;19.40;99.90;;;;;;5055241;28;20200;-76
2022/06/06 10:38:26;;;;;;;1.00;0.70;;;19.40;99.90;;;;;;5056369;28;20156;-77
2022/06/06 10:41:09;;;;;;;1.30;0.80;;;19.50;99.90;;;;;;5056269;28;20211;-76
2022/06/06 10:44:17;;;;;;;1.00;0.70;;;19.70;99.90;;;;;;5055316;28;20225;-78
2022/06/06 10:46:45;;;;;;;0.77;0.50;;;19.90;73.60;;;;;;5071656;28;20199;-77
2022/06/06 10:49:21;;;;;;;2.13;0.80;;;19.80;99.90;;;;;;5056323;28;20172;-76
2022/06/06 10:51:55;;;;;;;3.10;0.80;;;19.90;99.90;;;;;;5071650;28;20629;-77
2022/06/06 10:54:42;;;;;;;4.87;0.67;;;19.90;99.90;;;;;;5056347;28;20504;-76
2022/06/06 10:57:26;;;;;;;0.93;0.60;;;19.90;99.90;;;;;;5054817;28;20215;-79
2022/06/06 11:00:16;;;;;;;2.17;0.73;;;19.80;1.00;;;;;;5057487;28;20232;-78
2022/06/06 11:02:53;;;;;;;1.50;0.80;;;19.20;99.90;;;;;;5055159;28;20546;-77
2022/06/06 11:05:37;;;;;;;2.30;1.00;;;18.80;1.00;;;;;;5055283;28;20171;-76
2022/06/06 11:08:28;;;;;;;2.80;1.40;;;18.30;99.90;;;;;;5055746;28;20630;-76
2022/06/06 11:11:19;;;;;;;7.03;1.40;;;18.20;1.00;;;;;;5056107;28;20242;-77
2022/06/06 11:14:05;;;;;;;2.90;1.20;;;18.20;1.00;;;;;;5054546;28;20179;-74
2022/06/06 11:17:01;;;;;;;2.03;0.70;;;17.80;1.00;;;;;;5054205;28;20203;-78
2022/06/06 11:20:03;;;;;;;3.30;0.90;;;17.20;1.00;;;;;;5070877;28;20225;-76
2022/06/06 11:22:34;;;;;;;1.63;0.80;;;16.70;99.90;;;;;;5070103;28;20180;-76
2022/06/06 11:25:07;;;;;;;2.93;0.90;;;16.40;4.30;;;;;;5055709;28;20203;-76
2022/06/06 11:27:35;;;;;;;2.80;0.83;;;16.40;8.20;;;;;;5055335;28;20188;-76
2022/06/06 11:30:26;;;;;;;3.83;0.90;;;16.20;1.00;;;;;;5054088;28;20633;-77
2022/06/06 11:33:22;;;;;;;1.03;0.73;;;16.10;1.00;;;;;;5070682;28;20174;-76
2022/06/06 11:36:20;;;;;;;1.83;0.83;;;16.10;99.90;;;;;;5055020;28;20257;-76
2022/06/06 11:39:13;;;;;;;2.73;0.97;;;16.10;96.70;;;;;;5053893;28;20176;-75
2022/06/06 11:41:48;;;;;;;1.43;0.90;;;16.10;99.90;;;;;;5054183;28;20183;-78
2022/06/06 11:44:45;;;;;;;1.63;0.87;;;16.20;53.50;;;;;;5053810;28;20186;-75
2022/06/06 11:47:11;;;;;;;3.20;1.07;;;16.20;35.40;;;;;;5055009;28;20567;-75
2022/06/06 11:50:18;;;;;;;2.60;0.80;;;16.30;99.90;;;;;;5054889;28;20172;-74
2022/06/06 11:53:20;;;;;;;1.80;1.10;;;16.50;99.90;;;;;;5055151;28;20156;-75
2022/06/06 11:56:06;;;;;;;1.17;0.97;;;16.60;99.90;;;;;;5054719;28;20202;-74
2022/06/06 11:58:53;;;;;;;1.20;1.00;;;16.90;99.90;;;;;;5054977;28;20206;-74
2022/06/06 12:01:29;;;;;;;1.70;1.00;;;17.00;99.90;;;;;;5055224;28;20164;-74
2022/06/06 12:04:07;;;;;;;2.30;1.07;;;17.20;99.90;;;;;;5053377;28;20163;-74
2022/06/06 12:07:04;;;;;;;1.03;0.87;;;17.40;99.90;;;;;;5053220;28;20196;-75
2022/06/06 12:09:44;;;;;;;2.77;1.40;;;17.60;34.40;;;;;;5054566;28;20239;-76
2022/06/06 12:12:37;;;;;;;5.20;1.10;;;17.80;1.00;;;;;;5053188;28;20170;-76
2022/06/06 12:15:20;;;;;;;0.70;0.70;;;17.90;1.00;;;;;;5053101;28;20178;-75
2022/06/06 12:18:08;;;;;;;0.80;0.80;;;18.10;69.90;;;;;;5054566;28;20213;-76
2022/06/06 12:20:54;;;;;;;4.27;0.90;;;18.20;99.90;;;;;;5069691;28;20171;-76
2022/06/06 12:23:51;;;;;;;2.20;0.90;;;18.40;1.00;;;;;;5053395;28;20641;-77
2022/06/06 12:26:58;;;;;;;1.40;0.80;;;18.60;99.90;;;;;;5054303;28;20191;-77
2022/06/06 12:29:58;;;;;;;1.53;0.77;;;18.90;99.90;;;;;;5052938;28;20687;-76
2022/06/06 12:33:02;;;;;;;1.63;0.80;;;19.10;1.00;;;;;;5052912;28;20182;-76
2022/06/06 12:35:44;;;;;;;0.83;0.70;;;19.20;99.90;;;;;;5053267;28;20207;-75
2022/06/06 12:38:42;;;;;;;0.93;0.73;;;19.30;99.90;;;;;;5069405;28;20221;-76
2022/06/06 12:41:18;;;;;;;2.00;0.90;;;19.40;1.00;;;;;;5053961;28;20190;-76
2022/06/06 12:43:56;;;;;;;0.97;0.70;;;19.60;99.90;;;;;;5052702;28;20201;-76
2022/06/06 12:46:37;;;;;;;2.20;1.00;;;19.70;1.00;;;;;;5069226;28;20218;-75
2022/06/06 12:49:20;;;;;;;2.40;0.80;;;19.90;1.00;;;;;;5052538;28;20167;-76
2022/06/06 12:52:07;;;;;;;1.37;1.27;;;20.00;99.90;;;;;;5054139;28;20618;-77
2022/06/06 12:57:50;;;;;;;1.83;0.80;;;20.40;99.90;;;;;;5071764;22;20227;-78
2022/06/06 13:01:37;;;;;;;0.97;0.80;;;20.40;99.90;;;;;;5040788;28;20159;-76
2022/06/06 13:03:34;;;;;;;1.57;0.60;;;20.50;1.00;;;;;;5057636;28;20164;-76
2022/06/06 13:06:17;;;;;;;1.07;0.70;;;20.40;1.00;;;;;;5057091;28;20160;-76
2022/06/06 13:09:15;;;;;;;1.00;0.70;;;20.50;99.90;;;;;;5057189;28;20163;-76
2022/06/06 13:12:02;;;;;;;1.60;0.80;;;20.60;99.90;;;;;;5057415;28;20160;-76
2022/06/06 13:14:57;;;;;;;1.97;0.70;;;20.70;1.00;;;;;;5039911;28;20178;-76
2022/06/06 13:17:39;;;;;;;0.87;0.70;;;20.80;99.90;;;;;;5022977;28;20274;-77
2022/06/06 13:20:19;;;;;;;1.97;0.70;;;20.90;1.00;;;;;;5057762;28;20290;-76
2022/06/06 13:23:16;;;;;;;1.53;0.60;;;21.10;99.90;;;;;;5039267;28;20650;-76
2022/06/06 13:25:57;;;;;;;0.83;0.70;;;21.10;5.70;;;;;;5057119;28;20212;-76
2022/06/06 13:28:29;;;;;;;3.10;0.60;;;21.40;6.10;;;;;;5038645;28;20663;-77
2022/06/06 13:30:54;;;;;;;2.60;0.70;;;21.70;44.50;;;;;;5038726;28;20167;-76
2022/06/06 13:33:41;;;;;;;4.73;0.50;;;21.90;1.00;;;;;;5038008;28;20178;-77
2022/06/06 13:36:43;;;;;;;0.60;0.60;;;21.80;1.00;;;;;;5056377;28;20290;-76
2022/06/06 13:39:32;;;;;;;0.77;0.60;;;21.90;1.00;;;;;;5031714;28;20268;-77
2022/06/06 13:42:35;;;;;;;0.60;0.40;;;21.70;1.00;;;;;;5036913;28;20192;-77
2022/06/06 13:45:24;;;;;;;1.30;0.60;;;21.60;99.90;;;;;;5015949;28;20183;-76
2022/06/06 13:48:20;;;;;;;1.47;0.60;;;21.70;1.00;;;;;;5053060;28;20184;-77
2022/06/06 13:51:17;;;;;;;1.37;0.60;;;21.80;99.90;;;;;;5055037;28;20567;-76
2022/06/06 13:53:52;;;;;;;3.10;0.70;;;22.00;99.90;;;;;;5055866;28;20160;-75
2022/06/06 13:56:41;;;;;;;0.80;0.60;;;21.90;99.90;;;;;;5054819;28;20210;-77
2022/06/06 13:59:33;;;;;;;0.53;0.53;;;21.70;1.00;;;;;;5055531;28;20179;-78
2022/06/06 14:02:19;;;;;;;2.83;0.80;;;21.30;1.00;;;;;;5037179;28;20627;-77
2022/06/06 14:05:25;;;;;;;1.83;0.67;;;21.00;1.00;;;;;;5054662;28;20574;-77
2022/06/06 14:08:10;;;;;;;1.07;0.80;;;21.00;1.00;;;;;;5055405;28;20543;-76
2022/06/06 14:10:53;;;;;;;1.03;0.50;;;21.10;1.00;;;;;;5054941;28;20160;-76
2022/06/06 14:13:22;;;;;;;1.57;0.60;;;21.30;1.00;;;;;;5039619;28;20218;-78
2022/06/06 14:15:48;;;;;;;0.57;0.50;;;21.20;1.00;;;;;;5057738;28;20266;-76
2022/06/06 14:18:21;;;;;;;0.90;0.50;;;21.10;1.00;;;;;;5039511;28;20208;-75
2022/06/06 14:20:53;;;;;;;2.37;0.50;;;21.00;1.00;;;;;;5057759;28;20526;-76
2022/06/06 14:23:29;;;;;;;4.03;0.60;;;21.00;1.00;;;;;;5040379;28;20263;-76
2022/06/06 14:26:07;;;;;;;0.77;0.60;;;21.00;1.00;;;;;;5040515;28;20159;-76